sensor_id;sensor_type;location;lat;lon;timestamp;temperature;humidity
37788;DHT22;23627;53.302;-6.362;2024-01-15T00:02:17;4.20;99.90
37788;DHT22;23627;53.302;-6.362;2024-01-15T00:04:43;4.20;99.90
37788;DHT22;23627;53.302;-6.362;2024-01-15T00:07:09;4.20;99.90
37788;DHT22;23627;53.302;-6.362;2024-01-15T00:09:35;4.10;99.90
37788;DHT22;23627;53.302;-6.362;2024-01-15T00:12:01;4.10;99.90
37788;DHT22;23627;53.302;-6.362;2024-01-15T00:14:28;4.10;99.90
37788;DHT22;23627;53.302;-6.362;2024-01-15T00:16:54;4.00;99.90
37788;DHT22;23627;53.302;-6.362;2024-01-15T00:19:21;4.00;99.90
37788;DHT22;23627;53.302;-6.362;2024-01-15T00:21:47;4.00;99.90
37788;DHT22;23627;53.302;-6.362;2024-01-15T00:24:13;3.90;99.90
37788;DHT22;23627;53.302;-6.362;2024-01-15T00:26:39;4.00;99.90
37788;DHT22;23627;53.302;-6.362;2024-01-15T00:29:09;3.90;99.90
37788;DHT22;23627;53.302;-6.362;2024-01-15T00:31:35;3.90;99.90
37788;DHT22;23627;53.302;-6.362;2024-01-15T00:34:01;3.90;99.90
37788;DHT22;23627;53.302;-6.362;2024-01-15T00:36:27;3.90;99.90
37788;DHT22;23627;53.302;-6.362;2024-01-15T00:38:53;3.90;99.90
37788;DHT22;23627;53.302;-6.362;2024-01-15T00:41:19;3.90;99.90
37788;DHT22;23627;53.302;-6.362;2024-01-15T00:43:45;3.90;99.90
37788;DHT22;23627;53.302;-6.362;2024-01-15T00:46:11;3.80;99.90
37788;DHT22;23627;53.302;-6.362;2024-01-15T00:48:37;3.80;99.90
37788;DHT22;23627;53.302;-6.362;2024-01-15T00:51:04;3.80;99.90
37788;DHT22;23627;53.302;-6.362;2024-01-15T00:53:30;3.80;99.90
37788;DHT22;23627;53.302;-6.362;2024-01-15T00:55:56;3.80;99.90
37788;DHT22;23627;53.302;-6.362;2024-01-15T00:58:22;3.70;99.90
37788;DHT22;23627;53.302;-6.362;2024-01-15T01:00:48;3.70;99.90
37788;DHT22;23627;53.302;-6.362;2024-01-15T01:03:14;3.70;99.90
37788;DHT22;23627;53.302;-6.362;2024-01-15T01:05:39;3.70;99.90
37788;DHT22;23627;53.302;-6.362;2024-01-15T01:08:05;3.70;99.90
37788;DHT22;23627;53.302;-6.362;2024-01-15T01:10:31;3.60;99.90
37788;DHT22;23627;53.302;-6.362;2024-01-15T01:12:56;3.60;99.90
37788;DHT22;23627;53.302;-6.362;2024-01-15T01:15:22;3.60;99.90
37788;DHT22;23627;53.302;-6.362;2024-01-15T01:17:50;3.60;99.90
37788;DHT22;23627;53.302;-6.362;2024-01-15T01:20:15;3.50;99.90
37788;DHT22;23627;53.302;-6.362;2024-01-15T01:22:41;3.50;99.90
37788;DHT22;23627;53.302;-6.362;2024-01-15T01:25:07;3.50;99.90
37788;DHT22;23627;53.302;-6.362;2024-01-15T01:27:33;3.50;99.90
37788;DHT22;23627;53.302;-6.362;2024-01-15T01:29:59;3.50;99.90
37788;DHT22;23627;53.302;-6.362;2024-01-15T01:32:25;3.50;99.90
37788;DHT22;23627;53.302;-6.362;2024-01-15T01:34:50;3.40;99.90
37788;DHT22;23627;53.302;-6.362;2024-01-15T01:37:16;3.40;99.90
37788;DHT22;23627;53.302;-6.362;2024-01-15T01:39:43;3.40;99.90
37788;DHT22;23627;53.302;-6.362;2024-01-15T01:42:09;3.40;99.90
37788;DHT22;23627;53.302;-6.362;2024-01-15T01:44:34;3.30;99.90
37788;DHT22;23627;53.302;-6.362;2024-01-15T01:47:01;3.30;99.90
37788;DHT22;23627;53.302;-6.362;2024-01-15T01:49:27;3.30;99.90
37788;DHT22;23627;53.302;-6.362;2024-01-15T01:51:58;3.30;99.90
37788;DHT22;23627;53.302;-6.362;2024-01-15T01:54:29;3.30;99.90
37788;DHT22;23627;53.302;-6.362;2024-01-15T01:56:55;3.20;99.90
37788;DHT22;23627;53.302;-6.362;2024-01-15T01:59:23;3.20;99.90
37788;DHT22;23627;53.302;-6.362;2024-01-15T02:01:49;3.20;99.90
37788;DHT22;23627;53.302;-6.362;2024-01-15T02:04:16;3.20;99.90
37788;DHT22;23627;53.302;-6.362;2024-01-15T02:06:42;3.20;99.90
37788;DHT22;23627;53.302;-6.362;2024-01-15T02:09:08;3.20;99.90
37788;DHT22;23627;53.302;-6.362;2024-01-15T02:11:35;3.10;99.90
37788;DHT22;23627;53.302;-6.362;2024-01-15T02:14:01;3.10;99.90
37788;DHT22;23627;53.302;-6.362;2024-01-15T02:16:27;3.10;99.90
37788;DHT22;23627;53.302;-6.362;2024-01-15T02:18:53;3.10;99.90
37788;DHT22;23627;53.302;-6.362;2024-01-15T02:21:19;3.10;99.90
37788;DHT22;23627;53.302;-6.362;2024-01-15T02:23:45;3.10;99.90
37788;DHT22;23627;53.302;-6.362;2024-01-15T02:26:11;3.10;99.90
37788;DHT22;23627;53.302;-6.362;2024-01-15T02:28:37;3.00;99.90
37788;DHT22;23627;53.302;-6.362;2024-01-15T02:31:03;3.00;99.90
37788;DHT22;23627;53.302;-6.362;2024-01-15T02:33:29;3.00;99.90
37788;DHT22;23627;53.302;-6.362;2024-01-15T02:35:55;3.00;99.90
37788;DHT22;23627;53.302;-6.362;2024-01-15T02:38:20;3.00;99.90
37788;DHT22;23627;53.302;-6.362;2024-01-15T02:40:47;3.00;99.90
37788;DHT22;23627;53.302;-6.362;2024-01-15T02:43:12;3.00;99.90
37788;DHT22;23627;53.302;-6.362;2024-01-15T02:45:39;3.00;99.90
37788;DHT22;23627;53.302;-6.362;2024-01-15T02:48:05;2.90;99.90
37788;DHT22;23627;53.302;-6.362;2024-01-15T02:50:31;2.90;99.90
37788;DHT22;23627;53.302;-6.362;2024-01-15T02:52:57;2.90;99.90
37788;DHT22;23627;53.302;-6.362;2024-01-15T02:55:22;2.90;99.90
37788;DHT22;23627;53.302;-6.362;2024-01-15T02:57:48;2.90;99.90
37788;DHT22;23627;53.302;-6.362;2024-01-15T03:00:14;2.90;99.90
37788;DHT22;23627;53.302;-6.362;2024-01-15T03:02:40;2.90;99.90
37788;DHT22;23627;53.302;-6.362;2024-01-15T03:05:09;2.90;99.90
37788;DHT22;23627;53.302;-6.362;2024-01-15T03:07:35;2.90;99.90
37788;DHT22;23627;53.302;-6.362;2024-01-15T03:10:01;2.80;99.90
37788;DHT22;23627;53.302;-6.362;2024-01-15T03:12:27;2.80;99.90
37788;DHT22;23627;53.302;-6.362;2024-01-15T03:14:52;2.80;99.90
37788;DHT22;23627;53.302;-6.362;2024-01-15T03:17:18;2.80;99.90
37788;DHT22;23627;53.302;-6.362;2024-01-15T03:19:44;2.80;99.90
37788;DHT22;23627;53.302;-6.362;2024-01-15T03:22:10;2.80;99.90
37788;DHT22;23627;53.302;-6.362;2024-01-15T03:24:35;2.80;99.90
37788;DHT22;23627;53.302;-6.362;2024-01-15T03:27:02;2.80;99.90
37788;DHT22;23627;53.302;-6.362;2024-01-15T03:29:28;2.80;99.90
37788;DHT22;23627;53.302;-6.362;2024-01-15T03:31:53;2.70;99.90
37788;DHT22;23627;53.302;-6.362;2024-01-15T03:34:19;2.70;99.90
37788;DHT22;23627;53.302;-6.362;2024-01-15T03:36:45;2.70;99.90
37788;DHT22;23627;53.302;-6.362;2024-01-15T03:39:11;2.70;99.90
37788;DHT22;23627;53.302;-6.362;2024-01-15T03:41:36;2.70;99.90
37788;DHT22;23627;53.302;-6.362;2024-01-15T03:44:02;2.70;99.90
37788;DHT22;23627;53.302;-6.362;2024-01-15T03:46:28;2.70;99.90
37788;DHT22;23627;53.302;-6.362;2024-01-15T03:48:54;2.60;99.90
37788;DHT22;23627;53.302;-6.362;2024-01-15T03:51:20;2.60;99.90
37788;DHT22;23627;53.302;-6.362;2024-01-15T03:53:46;2.60;99.90
37788;DHT22;23627;53.302;-6.362;2024-01-15T03:56:13;2.60;99.90
37788;DHT22;23627;53.302;-6.362;2024-01-15T03:58:39;2.60;99.90
37788;DHT22;23627;53.302;-6.362;2024-01-15T04:01:10;2.60;99.90
37788;DHT22;23627;53.302;-6.362;2024-01-15T04:03:37;2.50;99.90
37788;DHT22;23627;53.302;-6.362;2024-01-15T04:06:03;2.60;99.90
37788;DHT22;23627;53.302;-6.362;2024-01-15T04:08:29;2.50;99.90
37788;DHT22;23627;53.302;-6.362;2024-01-15T04:10:55;2.50;99.90
37788;DHT22;23627;53.302;-6.362;2024-01-15T04:13:21;2.50;99.90
37788;DHT22;23627;53.302;-6.362;2024-01-15T04:15:47;2.50;99.90
37788;DHT22;23627;53.302;-6.362;2024-01-15T04:18:12;2.50;99.90
37788;DHT22;23627;53.302;-6.362;2024-01-15T04:20:39;2.40;99.90
37788;DHT22;23627;53.302;-6.362;2024-01-15T04:23:05;2.40;99.90
37788;DHT22;23627;53.302;-6.362;2024-01-15T04:25:31;2.40;99.90
37788;DHT22;23627;53.302;-6.362;2024-01-15T04:27:57;2.40;99.90
37788;DHT22;23627;53.302;-6.362;2024-01-15T04:30:22;2.40;99.90
37788;DHT22;23627;53.302;-6.362;2024-01-15T04:32:48;2.40;99.90
37788;DHT22;23627;53.302;-6.362;2024-01-15T04:35:14;2.40;99.90
37788;DHT22;23627;53.302;-6.362;2024-01-15T04:37:40;2.40;99.90
37788;DHT22;23627;53.302;-6.362;2024-01-15T04:40:06;2.40;99.90
37788;DHT22;23627;53.302;-6.362;2024-01-15T04:42:32;2.30;99.90
37788;DHT22;23627;53.302;-6.362;2024-01-15T04:44:58;2.40;99.90
37788;DHT22;23627;53.302;-6.362;2024-01-15T04:47:24;2.30;99.90
37788;DHT22;23627;53.302;-6.362;2024-01-15T04:49:50;2.30;99.90
37788;DHT22;23627;53.302;-6.362;2024-01-15T04:52:16;2.30;99.90
37788;DHT22;23627;53.302;-6.362;2024-01-15T04:54:42;2.30;99.90
37788;DHT22;23627;53.302;-6.362;2024-01-15T04:57:08;2.30;99.90
37788;DHT22;23627;53.302;-6.362;2024-01-15T04:59:33;2.20;99.90
37788;DHT22;23627;53.302;-6.362;2024-01-15T05:01:59;2.20;99.90
37788;DHT22;23627;53.302;-6.362;2024-01-15T05:04:25;2.20;99.90
37788;DHT22;23627;53.302;-6.362;2024-01-15T05:06:51;2.20;99.90
37788;DHT22;23627;53.302;-6.362;2024-01-15T05:09:16;2.20;99.90
37788;DHT22;23627;53.302;-6.362;2024-01-15T05:11:43;2.20;99.90
37788;DHT22;23627;53.302;-6.362;2024-01-15T05:14:09;2.20;99.90
37788;DHT22;23627;53.302;-6.362;2024-01-15T05:16:37;2.20;99.90
37788;DHT22;23627;53.302;-6.362;2024-01-15T05:19:03;2.10;99.90
37788;DHT22;23627;53.302;-6.362;2024-01-15T05:21:29;2.10;99.90
37788;DHT22;23627;53.302;-6.362;2024-01-15T05:23:55;2.10;99.90
37788;DHT22;23627;53.302;-6.362;2024-01-15T05:26:20;2.10;99.90
37788;DHT22;23627;53.302;-6.362;2024-01-15T05:28:46;2.10;99.90
37788;DHT22;23627;53.302;-6.362;2024-01-15T05:31:12;2.10;99.90
37788;DHT22;23627;53.302;-6.362;2024-01-15T05:33:38;2.10;99.90
37788;DHT22;23627;53.302;-6.362;2024-01-15T05:36:04;2.00;99.90
37788;DHT22;23627;53.302;-6.362;2024-01-15T05:38:29;2.00;99.90
37788;DHT22;23627;53.302;-6.362;2024-01-15T05:40:55;2.00;99.90
37788;DHT22;23627;53.302;-6.362;2024-01-15T05:43:21;2.00;99.90
37788;DHT22;23627;53.302;-6.362;2024-01-15T05:45:46;2.00;99.90
37788;DHT22;23627;53.302;-6.362;2024-01-15T05:48:12;2.00;99.90
37788;DHT22;23627;53.302;-6.362;2024-01-15T05:50:38;2.00;99.90
37788;DHT22;23627;53.302;-6.362;2024-01-15T05:53:04;2.00;99.90
37788;DHT22;23627;53.302;-6.362;2024-01-15T05:55:30;2.00;99.90
37788;DHT22;23627;53.302;-6.362;2024-01-15T05:57:56;2.00;99.90
37788;DHT22;23627;53.302;-6.362;2024-01-15T06:00:22;2.00;99.90
37788;DHT22;23627;53.302;-6.362;2024-01-15T06:02:47;2.00;99.90
37788;DHT22;23627;53.302;-6.362;2024-01-15T06:05:13;2.00;99.90
37788;DHT22;23627;53.302;-6.362;2024-01-15T06:07:39;2.00;99.90
37788;DHT22;23627;53.302;-6.362;2024-01-15T06:10:05;2.00;99.90
37788;DHT22;23627;53.302;-6.362;2024-01-15T06:12:31;2.00;99.90
37788;DHT22;23627;53.302;-6.362;2024-01-15T06:14:59;2.00;99.90
37788;DHT22;23627;53.302;-6.362;2024-01-15T06:17:24;2.00;99.90
37788;DHT22;23627;53.302;-6.362;2024-01-15T06:19:50;2.00;99.90
37788;DHT22;23627;53.302;-6.362;2024-01-15T06:22:16;2.00;99.90
37788;DHT22;23627;53.302;-6.362;2024-01-15T06:24:41;2.00;99.90
37788;DHT22;23627;53.302;-6.362;2024-01-15T06:27:08;2.10;99.90
37788;DHT22;23627;53.302;-6.362;2024-01-15T06:29:36;2.10;99.90
37788;DHT22;23627;53.302;-6.362;2024-01-15T06:32:03;2.10;99.90
37788;DHT22;23627;53.302;-6.362;2024-01-15T06:34:29;2.10;99.90
37788;DHT22;23627;53.302;-6.362;2024-01-15T06:36:54;2.10;99.90
37788;DHT22;23627;53.302;-6.362;2024-01-15T06:39:20;2.10;99.90
37788;DHT22;23627;53.302;-6.362;2024-01-15T06:41:46;2.10;99.90
37788;DHT22;23627;53.302;-6.362;2024-01-15T06:44:12;2.10;99.90
37788;DHT22;23627;53.302;-6.362;2024-01-15T06:46:45;2.10;99.90
37788;DHT22;23627;53.302;-6.362;2024-01-15T06:49:11;2.10;99.90
37788;DHT22;23627;53.302;-6.362;2024-01-15T06:51:37;2.10;99.90
37788;DHT22;23627;53.302;-6.362;2024-01-15T06:54:03;2.10;99.90
37788;DHT22;23627;53.302;-6.362;2024-01-15T06:56:29;2.10;99.90
37788;DHT22;23627;53.302;-6.362;2024-01-15T06:58:55;2.10;99.90
37788;DHT22;23627;53.302;-6.362;2024-01-15T07:01:21;2.10;99.90
37788;DHT22;23627;53.302;-6.362;2024-01-15T07:03:47;2.10;99.90
37788;DHT22;23627;53.302;-6.362;2024-01-15T07:06:13;2.00;99.90
37788;DHT22;23627;53.302;-6.362;2024-01-15T07:08:40;2.00;99.90
37788;DHT22;23627;53.302;-6.362;2024-01-15T07:11:06;2.00;99.90
37788;DHT22;23627;53.302;-6.362;2024-01-15T07:13:32;2.00;99.90
37788;DHT22;23627;53.302;-6.362;2024-01-15T07:15:58;2.00;99.90
37788;DHT22;23627;53.302;-6.362;2024-01-15T07:18:24;2.00;99.90
37788;DHT22;23627;53.302;-6.362;2024-01-15T07:20:50;2.00;99.90
37788;DHT22;23627;53.302;-6.362;2024-01-15T07:23:16;2.00;99.90
37788;DHT22;23627;53.302;-6.362;2024-01-15T07:25:43;2.00;99.90
37788;DHT22;23627;53.302;-6.362;2024-01-15T07:28:08;2.00;99.90
37788;DHT22;23627;53.302;-6.362;2024-01-15T07:30:34;2.00;99.90
37788;DHT22;23627;53.302;-6.362;2024-01-15T07:33:00;2.00;99.90
37788;DHT22;23627;53.302;-6.362;2024-01-15T07:35:26;2.00;99.90
37788;DHT22;23627;53.302;-6.362;2024-01-15T07:37:52;2.00;99.90
37788;DHT22;23627;53.302;-6.362;2024-01-15T07:40:18;2.00;99.90
37788;DHT22;23627;53.302;-6.362;2024-01-15T07:42:43;2.00;99.90
37788;DHT22;23627;53.302;-6.362;2024-01-15T07:45:10;1.90;99.90
37788;DHT22;23627;53.302;-6.362;2024-01-15T07:47:36;1.90;99.90
37788;DHT22;23627;53.302;-6.362;2024-01-15T07:50:03;1.90;99.90
37788;DHT22;23627;53.302;-6.362;2024-01-15T07:52:30;1.90;99.90
37788;DHT22;23627;53.302;-6.362;2024-01-15T07:54:56;1.90;99.90
37788;DHT22;23627;53.302;-6.362;2024-01-15T07:57:22;1.90;99.90
37788;DHT22;23627;53.302;-6.362;2024-01-15T07:59:48;1.90;99.90
37788;DHT22;23627;53.302;-6.362;2024-01-15T08:02:15;1.90;99.90
37788;DHT22;23627;53.302;-6.362;2024-01-15T08:04:41;1.90;99.90
37788;DHT22;23627;53.302;-6.362;2024-01-15T08:07:07;1.90;99.90
37788;DHT22;23627;53.302;-6.362;2024-01-15T08:09:33;1.90;99.90
37788;DHT22;23627;53.302;-6.362;2024-01-15T08:11:59;1.90;99.90
37788;DHT22;23627;53.302;-6.362;2024-01-15T08:14:25;1.80;99.90
37788;DHT22;23627;53.302;-6.362;2024-01-15T08:16:51;1.80;99.90
37788;DHT22;23627;53.302;-6.362;2024-01-15T08:19:17;1.80;99.90
37788;DHT22;23627;53.302;-6.362;2024-01-15T08:21:42;1.80;99.90
37788;DHT22;23627;53.302;-6.362;2024-01-15T08:24:08;1.80;99.90
37788;DHT22;23627;53.302;-6.362;2024-01-15T08:26:34;1.80;99.90
37788;DHT22;23627;53.302;-6.362;2024-01-15T08:29:00;1.80;99.90
37788;DHT22;23627;53.302;-6.362;2024-01-15T08:31:26;1.80;99.90
37788;DHT22;23627;53.302;-6.362;2024-01-15T08:33:52;1.80;99.90
37788;DHT22;23627;53.302;-6.362;2024-01-15T08:36:18;1.80;99.90
37788;DHT22;23627;53.302;-6.362;2024-01-15T08:38:44;1.80;99.90
37788;DHT22;23627;53.302;-6.362;2024-01-15T08:41:10;1.80;99.90
37788;DHT22;23627;53.302;-6.362;2024-01-15T08:43:36;1.80;99.90
37788;DHT22;23627;53.302;-6.362;2024-01-15T08:46:02;1.80;99.90
37788;DHT22;23627;53.302;-6.362;2024-01-15T08:48:29;1.80;99.90
37788;DHT22;23627;53.302;-6.362;2024-01-15T08:50:55;1.80;99.90
37788;DHT22;23627;53.302;-6.362;2024-01-15T08:53:22;1.80;99.90
37788;DHT22;23627;53.302;-6.362;2024-01-15T08:55:48;1.80;99.90
37788;DHT22;23627;53.302;-6.362;2024-01-15T08:58:14;1.80;99.90
37788;DHT22;23627;53.302;-6.362;2024-01-15T09:00:39;1.80;99.90
37788;DHT22;23627;53.302;-6.362;2024-01-15T09:03:05;1.80;99.90
37788;DHT22;23627;53.302;-6.362;2024-01-15T09:05:31;1.80;99.90
37788;DHT22;23627;53.302;-6.362;2024-01-15T09:07:57;1.80;99.90
37788;DHT22;23627;53.302;-6.362;2024-01-15T09:10:23;1.80;99.90
37788;DHT22;23627;53.302;-6.362;2024-01-15T09:12:49;1.80;99.90
37788;DHT22;23627;53.302;-6.362;2024-01-15T09:15:15;1.80;99.90
37788;DHT22;23627;53.302;-6.362;2024-01-15T09:17:41;1.80;99.90
37788;DHT22;23627;53.302;-6.362;2024-01-15T09:20:08;1.80;99.90
37788;DHT22;23627;53.302;-6.362;2024-01-15T09:22:35;1.80;99.90
37788;DHT22;23627;53.302;-6.362;2024-01-15T09:25:01;1.90;99.90
37788;DHT22;23627;53.302;-6.362;2024-01-15T09:27:27;1.90;99.90
37788;DHT22;23627;53.302;-6.362;2024-01-15T09:29:53;1.90;99.90
37788;DHT22;23627;53.302;-6.362;2024-01-15T09:32:19;1.90;99.90
37788;DHT22;23627;53.302;-6.362;2024-01-15T09:34:46;1.90;99.90
37788;DHT22;23627;53.302;-6.362;2024-01-15T09:37:12;1.90;99.90
37788;DHT22;23627;53.302;-6.362;2024-01-15T09:39:38;1.90;99.90
37788;DHT22;23627;53.302;-6.362;2024-01-15T09:42:04;2.00;99.90
37788;DHT22;23627;53.302;-6.362;2024-01-15T09:44:31;2.00;99.90
37788;DHT22;23627;53.302;-6.362;2024-01-15T09:46:57;1.90;99.90
37788;DHT22;23627;53.302;-6.362;2024-01-15T09:49:24;2.00;99.90
37788;DHT22;23627;53.302;-6.362;2024-01-15T09:51:50;2.00;99.90
37788;DHT22;23627;53.302;-6.362;2024-01-15T09:54:16;2.00;99.90
37788;DHT22;23627;53.302;-6.362;2024-01-15T09:56:46;2.00;99.90
37788;DHT22;23627;53.302;-6.362;2024-01-15T09:59:17;2.10;99.90
37788;DHT22;23627;53.302;-6.362;2024-01-15T10:01:45;2.10;99.90
37788;DHT22;23627;53.302;-6.362;2024-01-15T10:04:11;2.10;99.90
37788;DHT22;23627;53.302;-6.362;2024-01-15T10:06:51;2.10;99.90
37788;DHT22;23627;53.302;-6.362;2024-01-15T10:09:17;2.10;99.90
37788;DHT22;23627;53.302;-6.362;2024-01-15T10:11:44;2.10;99.90
37788;DHT22;23627;53.302;-6.362;2024-01-15T10:14:11;2.10;99.90
37788;DHT22;23627;53.302;-6.362;2024-01-15T10:16:40;2.10;99.90
37788;DHT22;23627;53.302;-6.362;2024-01-15T10:19:05;2.10;99.90
37788;DHT22;23627;53.302;-6.362;2024-01-15T10:21:36;2.10;99.90
37788;DHT22;23627;53.302;-6.362;2024-01-15T10:24:03;2.20;99.90
37788;DHT22;23627;53.302;-6.362;2024-01-15T10:26:29;2.20;99.90
37788;DHT22;23627;53.302;-6.362;2024-01-15T10:28:55;2.20;99.90
37788;DHT22;23627;53.302;-6.362;2024-01-15T10:31:21;2.20;99.90
37788;DHT22;23627;53.302;-6.362;2024-01-15T10:33:49;2.30;99.90
37788;DHT22;23627;53.302;-6.362;2024-01-15T10:36:16;2.30;99.90
37788;DHT22;23627;53.302;-6.362;2024-01-15T10:38:46;2.30;99.90
37788;DHT22;23627;53.302;-6.362;2024-01-15T10:41:12;2.30;99.90
37788;DHT22;23627;53.302;-6.362;2024-01-15T10:43:38;2.30;99.90
37788;DHT22;23627;53.302;-6.362;2024-01-15T10:46:07;2.40;99.90
37788;DHT22;23627;53.302;-6.362;2024-01-15T10:48:34;2.40;99.90
37788;DHT22;23627;53.302;-6.362;2024-01-15T10:51:01;2.40;99.90
37788;DHT22;23627;53.302;-6.362;2024-01-15T10:53:29;2.40;99.90
37788;DHT22;23627;53.302;-6.362;2024-01-15T10:55:57;2.50;99.90
37788;DHT22;23627;53.302;-6.362;2024-01-15T10:58:26;2.50;99.90
37788;DHT22;23627;53.302;-6.362;2024-01-15T11:00:55;2.50;99.90
37788;DHT22;23627;53.302;-6.362;2024-01-15T11:03:21;2.50;99.90
37788;DHT22;23627;53.302;-6.362;2024-01-15T11:05:47;2.50;99.90
37788;DHT22;23627;53.302;-6.362;2024-01-15T11:08:17;2.60;99.90
37788;DHT22;23627;53.302;-6.362;2024-01-15T11:10:50;2.60;99.90
37788;DHT22;23627;53.302;-6.362;2024-01-15T11:16:09;2.60;99.90
37788;DHT22;23627;53.302;-6.362;2024-01-15T11:21:22;2.70;99.90
37788;DHT22;23627;53.302;-6.362;2024-01-15T11:23:54;2.70;99.90
37788;DHT22;23627;53.302;-6.362;2024-01-15T11:26:37;2.70;99.90
37788;DHT22;23627;53.302;-6.362;2024-01-15T11:29:07;2.80;99.90
37788;DHT22;23627;53.302;-6.362;2024-01-15T11:34:09;2.80;99.90
37788;DHT22;23627;53.302;-6.362;2024-01-15T11:41:55;2.90;99.90
37788;DHT22;23627;53.302;-6.362;2024-01-15T11:44:21;2.90;99.90
37788;DHT22;23627;53.302;-6.362;2024-01-15T11:47:03;3.00;99.90
37788;DHT22;23627;53.302;-6.362;2024-01-15T11:50:01;3.00;99.90
37788;DHT22;23627;53.302;-6.362;2024-01-15T11:52:36;3.00;99.90
37788;DHT22;23627;53.302;-6.362;2024-01-15T11:55:35;3.10;99.90
37788;DHT22;23627;53.302;-6.362;2024-01-15T11:58:02;3.20;99.90
37788;DHT22;23627;53.302;-6.362;2024-01-15T12:00:29;3.20;99.90
37788;DHT22;23627;53.302;-6.362;2024-01-15T12:02:54;3.20;99.90
37788;DHT22;23627;53.302;-6.362;2024-01-15T12:05:23;3.20;99.90
37788;DHT22;23627;53.302;-6.362;2024-01-15T12:07:49;3.20;99.90
37788;DHT22;23627;53.302;-6.362;2024-01-15T12:10:17;3.30;99.90
37788;DHT22;23627;53.302;-6.362;2024-01-15T12:15:18;3.30;99.90
37788;DHT22;23627;53.302;-6.362;2024-01-15T12:17:43;3.40;99.90
37788;DHT22;23627;53.302;-6.362;2024-01-15T12:20:11;3.40;99.90
37788;DHT22;23627;53.302;-6.362;2024-01-15T12:22:37;3.50;99.90
37788;DHT22;23627;53.302;-6.362;2024-01-15T12:25:03;3.50;99.90
37788;DHT22;23627;53.302;-6.362;2024-01-15T12:27:30;3.60;99.90
37788;DHT22;23627;53.302;-6.362;2024-01-15T12:29:55;3.60;99.90
37788;DHT22;23627;53.302;-6.362;2024-01-15T12:32:24;3.60;99.90
37788;DHT22;23627;53.302;-6.362;2024-01-15T12:34:50;3.60;99.90
37788;DHT22;23627;53.302;-6.362;2024-01-15T12:37:20;3.70;99.90
37788;DHT22;23627;53.302;-6.362;2024-01-15T12:39:47;3.70;99.90
37788;DHT22;23627;53.302;-6.362;2024-01-15T12:42:14;3.70;99.90
37788;DHT22;23627;53.302;-6.362;2024-01-15T12:44:42;3.70;99.90
37788;DHT22;23627;53.302;-6.362;2024-01-15T12:47:08;3.70;99.90
37788;DHT22;23627;53.302;-6.362;2024-01-15T12:49:36;3.80;99.90
37788;DHT22;23627;53.302;-6.362;2024-01-15T12:52:03;3.80;99.90
37788;DHT22;23627;53.302;-6.362;2024-01-15T12:54:29;3.80;99.90
37788;DHT22;23627;53.302;-6.362;2024-01-15T12:56:54;3.80;99.90
37788;DHT22;23627;53.302;-6.362;2024-01-15T12:59:20;3.70;99.90
37788;DHT22;23627;53.302;-6.362;2024-01-15T13:01:46;3.70;99.90
37788;DHT22;23627;53.302;-6.362;2024-01-15T13:04:21;3.70;99.90
37788;DHT22;23627;53.302;-6.362;2024-01-15T13:06:50;3.70;99.90
37788;DHT22;23627;53.302;-6.362;2024-01-15T13:09:16;3.70;99.90
37788;DHT22;23627;53.302;-6.362;2024-01-15T13:11:45;3.70;99.90
37788;DHT22;23627;53.302;-6.362;2024-01-15T13:14:12;3.70;99.90
37788;DHT22;23627;53.302;-6.362;2024-01-15T13:16:40;3.80;99.90
37788;DHT22;23627;53.302;-6.362;2024-01-15T13:19:07;3.70;99.90
37788;DHT22;23627;53.302;-6.362;2024-01-15T13:21:34;3.80;99.90
37788;DHT22;23627;53.302;-6.362;2024-01-15T13:23:59;3.70;99.90
37788;DHT22;23627;53.302;-6.362;2024-01-15T13:26:25;3.80;99.90
37788;DHT22;23627;53.302;-6.362;2024-01-15T13:28:51;3.70;99.90
37788;DHT22;23627;53.302;-6.362;2024-01-15T13:31:17;3.70;99.90
37788;DHT22;23627;53.302;-6.362;2024-01-15T13:33:42;3.70;99.90
37788;DHT22;23627;53.302;-6.362;2024-01-15T13:36:08;3.70;99.90
37788;DHT22;23627;53.302;-6.362;2024-01-15T13:38:38;3.70;99.90
37788;DHT22;23627;53.302;-6.362;2024-01-15T13:41:05;3.70;99.90
37788;DHT22;23627;53.302;-6.362;2024-01-15T13:43:31;3.70;99.90
37788;DHT22;23627;53.302;-6.362;2024-01-15T13:45:57;3.80;99.90
37788;DHT22;23627;53.302;-6.362;2024-01-15T13:48:23;3.80;99.90
37788;DHT22;23627;53.302;-6.362;2024-01-15T13:50:49;3.80;99.90
37788;DHT22;23627;53.302;-6.362;2024-01-15T13:53:16;3.80;99.90
37788;DHT22;23627;53.302;-6.362;2024-01-15T13:55:42;3.80;99.90
37788;DHT22;23627;53.302;-6.362;2024-01-15T13:58:07;3.90;99.90
37788;DHT22;23627;53.302;-6.362;2024-01-15T14:00:33;3.90;99.90
37788;DHT22;23627;53.302;-6.362;2024-01-15T14:02:59;3.90;99.90
37788;DHT22;23627;53.302;-6.362;2024-01-15T14:05:25;3.90;99.90
37788;DHT22;23627;53.302;-6.362;2024-01-15T14:07:51;3.90;99.90
37788;DHT22;23627;53.302;-6.362;2024-01-15T14:10:17;3.90;99.90
37788;DHT22;23627;53.302;-6.362;2024-01-15T14:12:43;3.90;99.90
37788;DHT22;23627;53.302;-6.362;2024-01-15T14:15:09;3.90;99.90
37788;DHT22;23627;53.302;-6.362;2024-01-15T14:17:34;3.90;99.90
37788;DHT22;23627;53.302;-6.362;2024-01-15T14:20:00;3.90;99.90
37788;DHT22;23627;53.302;-6.362;2024-01-15T14:22:26;3.90;99.90
37788;DHT22;23627;53.302;-6.362;2024-01-15T14:24:52;3.90;99.90
37788;DHT22;23627;53.302;-6.362;2024-01-15T14:27:18;3.90;99.90
37788;DHT22;23627;53.302;-6.362;2024-01-15T14:29:43;3.80;99.90
37788;DHT22;23627;53.302;-6.362;2024-01-15T14:32:09;3.80;99.90
37788;DHT22;23627;53.302;-6.362;2024-01-15T14:34:35;3.80;99.90
37788;DHT22;23627;53.302;-6.362;2024-01-15T14:37:02;3.80;99.90
37788;DHT22;23627;53.302;-6.362;2024-01-15T14:39:28;3.80;99.90
37788;DHT22;23627;53.302;-6.362;2024-01-15T14:41:54;3.70;99.90
37788;DHT22;23627;53.302;-6.362;2024-01-15T14:44:20;3.70;99.90
37788;DHT22;23627;53.302;-6.362;2024-01-15T14:46:46;3.70;99.90
37788;DHT22;23627;53.302;-6.362;2024-01-15T14:49:12;3.70;99.90
37788;DHT22;23627;53.302;-6.362;2024-01-15T14:51:38;3.70;99.90
37788;DHT22;23627;53.302;-6.362;2024-01-15T14:54:03;3.70;99.90
37788;DHT22;23627;53.302;-6.362;2024-01-15T14:56:29;3.60;99.90
37788;DHT22;23627;53.302;-6.362;2024-01-15T14:58:55;3.60;99.90
37788;DHT22;23627;53.302;-6.362;2024-01-15T15:01:21;3.60;99.90
37788;DHT22;23627;53.302;-6.362;2024-01-15T15:03:48;3.60;99.90
37788;DHT22;23627;53.302;-6.362;2024-01-15T15:06:14;3.60;99.90
37788;DHT22;23627;53.302;-6.362;2024-01-15T15:08:39;3.50;99.90
37788;DHT22;23627;53.302;-6.362;2024-01-15T15:11:06;3.50;99.90
37788;DHT22;23627;53.302;-6.362;2024-01-15T15:13:32;3.50;99.90
37788;DHT22;23627;53.302;-6.362;2024-01-15T15:15:58;3.50;99.90
37788;DHT22;23627;53.302;-6.362;2024-01-15T15:18:23;3.50;99.90
37788;DHT22;23627;53.302;-6.362;2024-01-15T15:20:49;3.40;99.90
37788;DHT22;23627;53.302;-6.362;2024-01-15T15:23:16;3.40;99.90
37788;DHT22;23627;53.302;-6.362;2024-01-15T15:25:43;3.40;99.90
37788;DHT22;23627;53.302;-6.362;2024-01-15T15:28:09;3.40;99.90
37788;DHT22;23627;53.302;-6.362;2024-01-15T15:30:37;3.40;99.90
37788;DHT22;23627;53.302;-6.362;2024-01-15T15:33:03;3.40;99.90
37788;DHT22;23627;53.302;-6.362;2024-01-15T15:35:28;3.30;99.90
37788;DHT22;23627;53.302;-6.362;2024-01-15T15:37:57;3.30;99.90
37788;DHT22;23627;53.302;-6.362;2024-01-15T15:40:23;3.30;99.90
37788;DHT22;23627;53.302;-6.362;2024-01-15T15:42:50;3.30;99.90